Nearby METAR Reports

(scroll for additional cities)

 

KPSP - Palm Springs, California, USA
Distance from station: WNW 7mi, 11km
Updated: Wed, 26-Feb-2020 12:53pm PST
Clear
Clear
 Wind from SE
Wind: SE 7 mph , 11 km/h
Temperature: 73°F , 23°C
Dew Point: 12°F , -11°C
Humidity: 9%
Barometer: 30.35 inHg , 1027.8 hPa
Clouds: Clear
Visibility: 10 miles , 16 km
2020/02/26 20:53 KPSP 262053Z 14006KT 10SM CLR 23/M11 A3035 RMK AO2 SLP276 T02331106 58039
KTRM - Thermal/Palm Spg, California, USA
Distance from station: SE 16mi, 26km
Updated: Wed, 26-Feb-2020 12:52pm PST
Clear
Clear
 Wind from NNW
Wind: NNW 6 mph , 9 km/h
Temperature: 73°F , 23°C
Dew Point: 12°F , -11°C
Humidity: 9%
Barometer: 30.32 inHg , 1026.8 hPa
Clouds: Clear
Visibility: 10 miles , 16 km
2020/02/26 20:52 KTRM 262052Z AUTO 34005KT 10SM CLR 23/M11 A3032 RMK AO2 SLP267 T02331111 58039
 
KNXP - Twentynine Palms, California, USA
Distance from station: NNE 37mi, 60km
Updated: Wed, 26-Feb-2020 12:56pm PST
Clear
Clear
 Wind from SW
Wind: SW 3 mph , 6 km/h
Temperature: 63°F , 17°C
Dew Point: 5°F , -15°C
Humidity: 10%
Barometer: 30.45 inHg , 1031.2 hPa
Clouds: Clear
Visibility: 10 miles , 16 km
2020/02/26 20:56 KNXP 262056Z AUTO 22003KT 10SM CLR 17/M15 A3045 RMK AO2 SLP293 T01671150 58030
KL35 - Big Bear City, California, USA
Distance from station: NW 43mi, 69km
Updated: Wed, 26-Feb-2020 1:35pm PST
Clear
Clear
 Wind from ENE
Wind: ENE 10 mph , 17 km/h
Temperature: 50°F , 10°C
Wind Chill: 46°F , 8°C
Dew Point: 3°F , -16°C
Humidity: 14%
Barometer: 30.41 inHg , 1029.8 hPa
Clouds: Clear
Visibility: 10 miles , 16 km
2020/02/26 21:35 KL35 262135Z AUTO 06009KT 10SM CLR 10/M16 A3041 RMK AO2
 
KF70 - Murrieta/Temecula, California, USA
Distance from station: WSW 45mi, 73km
Updated: Wed, 26-Feb-2020 1:35pm PST
Clear
Clear
 Wind from SSE
Wind: SSE 10 mph , 17 km/h, Gust: 18 mph , 30 km/h
Temperature: 73°F , 23°C
Dew Point: 18°F , -8°C
Humidity: 12%
Barometer: 30.24 inHg , 1024 hPa
Clouds: Clear
Visibility: 10 miles , 16 km
2020/02/26 21:35 KF70 262135Z AUTO 15009G16KT 10SM CLR 23/M08 A3024 RMK AO1
KRIV - Riverside/March, California, USA
Distance from station: W 51mi, 82km
Updated: Wed, 26-Feb-2020 12:56pm PST
Clear
Clear
 Wind from NE
Wind: NE 5 mph , 7 km/h
Temperature: 72°F , 22°C
Dew Point: 14°F , -10°C
Humidity: 11%
Barometer: 30.27 inHg , 1025.1 hPa
Clouds: Clear
Visibility: 10 miles , 16 km
2020/02/26 20:56 KRIV 262056Z AUTO 04004KT 10SM CLR 22/M10 A3027 RMK AO2 SLP243 T02211098 58020
 
KSBD - San Bernardino, California, USA
Distance from station: WNW 54mi, 86km
Updated: Wed, 26-Feb-2020 12:47pm PST
Clear
Clear
 Wind from calm
Wind: Calm
Temperature: 75°F , 24°C
Dew Point: 18°F , -8°C
Humidity: 11%
Barometer: 30.26 inHg , 1024.7 hPa
Clouds: Clear
Visibility: 7 miles , 11 km
2020/02/26 20:47 KSBD 262047Z 00000KT 7SM SKC 24/M08 A3026
KRNM - Ramona, California, USA
Distance from station: SSW 60mi, 96km
Updated: Wed, 26-Feb-2020 12:53pm PST
Clear
Clear
 Wind from ENE
Wind: ENE 26 mph , 43 km/h, Gust: 38 mph , 61 km/h
Temperature: 68°F , 20°C
Dew Point: 14°F , -10°C
Humidity: 12%
Barometer: 30.23 inHg , 1023.7 hPa
Clouds: Clear
Visibility: 10 miles , 16 km
2020/02/26 20:53 KRNM 262053Z 07023G33KT 10SM CLR 20/M10 A3023 RMK AO2 PK WND 06033/2046 SLP228 T02001100 58020
 
KRAL - Riverside, California, USA
Distance from station: W 62mi, 100km
Updated: Wed, 26-Feb-2020 12:53pm PST
Clear
Clear
 Wind from E
Wind: E 12 mph , 19 km/h
Temperature: 77°F , 25°C
Dew Point: 16°F , -9°C
Humidity: 10%
Barometer: 30.25 inHg , 1024.4 hPa
Clouds: Clear
Visibility: 10 miles , 16 km
2020/02/26 20:53 KRAL 262053Z 09010KT 10SM CLR 25/M09 A3025 RMK AO2 SLP230 T02501094 58026
KOKB - Oceanside, California, USA
Distance from station: SW 68mi, 109km
Updated: Wed, 26-Feb-2020 12:52pm PST
Clear
Clear
 Wind from WSW
Wind: WSW 12 mph , 19 km/h
Temperature: 79°F , 26°C
Dew Point: 27°F , -3°C
Humidity: 15%
Barometer: 30.20 inHg , 1022.7 hPa
Clouds: Clear
Visibility: 8 miles , 13 km
2020/02/26 20:52 KOKB 262052Z AUTO 25010KT 8SM CLR 26/M03 A3020 RMK AO2 SLP225 T02611028 58026
 
KONT - Ontario, California, USA
Distance from station: WNW 71mi, 114km
Updated: Wed, 26-Feb-2020 12:53pm PST
Few Clouds
Few Clouds
 Wind from NNW
Wind: NNW 8 mph , 13 km/h
Temperature: 79°F , 26°C
Dew Point: 16°F , -9°C
Humidity: 9%
Barometer: 30.23 inHg , 1023.7 hPa
Clouds: Few Clouds
Visibility: 10 miles , 16 km
Cloud details: Few Clouds 25000 ft
2020/02/26 20:53 KONT 262053Z 33007KT 10SM FEW250 26/M09 A3023 RMK AO2 SLP225 T02561094 58029
KNJK - El Centro Naf, California, USA
Distance from station: SSE 78mi, 126km
Updated: Wed, 26-Feb-2020 12:56pm PST
Clear
Clear
 Wind from NNE
Wind: NNE 6 mph , 9 km/h
Temperature: 72°F , 22°C
Dew Point: 3°F , -16°C
Humidity: 7%
Barometer: 30.35 inHg , 1027.8 hPa
Clouds: Clear
Visibility: 10 miles , 16 km
2020/02/26 20:56 KNJK 262056Z 03005KT 10SM CLR 22/M16 A3035 RMK AO2 SLP294 T02221161 58036
 
KSEE - San Diego/Santee, California, USA
Distance from station: SSW 74mi, 120km
Updated: Wed, 26-Feb-2020 12:47pm PST
Clear
Clear
 Wind from varies
Wind: varies 7 mph , 11 km/h
Temperature: 77°F , 25°C
Dew Point: 19°F , -7°C
Humidity: 11%
Barometer: 30.20 inHg , 1022.7 hPa
Clouds: Clear
Visibility: 10 miles , 16 km
2020/02/26 20:47 KSEE 262047Z VRB06KT 10SM SKC 25/M07 A3020
KCNO - Chino, California, USA
Distance from station: W 72mi, 116km
Updated: Wed, 26-Feb-2020 12:53pm PST
Few Clouds
Few Clouds
 Wind from varies
Wind: varies 7 mph , 11 km/h
Temperature: 82°F , 28°C
Dew Point: 21°F , -6°C
Humidity: 10%
Barometer: 30.23 inHg , 1023.7 hPa
Clouds: Few Clouds
Visibility: 10 miles , 16 km
Cloud details: Few Clouds 25000 ft
2020/02/26 20:53 KCNO 262053Z VRB06KT 10SM FEW250 28/M06 A3023 RMK AO2 SLP233 T02781061 58030

Metar display script from Saratoga-Weather.org